createdAt,value
2022-09-18T00:01:18.572Z,7.60
2022-09-18T00:03:47.013Z,7.30
2022-09-18T00:06:16.002Z,7.40
2022-09-18T00:08:44.699Z,7.60
2022-09-18T00:11:13.652Z,7.40
2022-09-18T00:13:44.673Z,7.40
2022-09-18T00:16:15.035Z,7.60
2022-09-18T00:18:42.980Z,7.60
2022-09-18T00:21:11.724Z,7.80
2022-09-18T00:23:39.600Z,7.80
2022-09-18T00:26:07.655Z,7.90
2022-09-18T00:28:35.560Z,7.80
2022-09-18T00:31:06.925Z,7.90
2022-09-18T00:33:37.505Z,7.80
2022-09-18T00:36:06.292Z,7.70
2022-09-18T00:38:34.184Z,7.80
2022-09-18T00:41:02.471Z,7.80
2022-09-18T00:43:31.126Z,7.80
2022-09-18T00:45:59.341Z,7.90
2022-09-18T00:48:31.742Z,7.80
2022-09-18T00:51:01.353Z,7.80
2022-09-18T00:53:29.202Z,7.90
2022-09-18T00:55:57.484Z,7.90
2022-09-18T00:58:25.279Z,7.90
2022-09-18T01:00:53.584Z,8.00
2022-09-18T01:03:21.413Z,8.00
2022-09-18T01:05:57.133Z,8.00
2022-09-18T01:08:31.991Z,7.90
2022-09-18T01:11:05.934Z,7.90
2022-09-18T01:13:37.115Z,8.00
2022-09-18T01:16:08.122Z,7.80
2022-09-18T01:18:40.458Z,7.80
2022-09-18T01:21:13.048Z,7.70
2022-09-18T01:24:31.720Z,7.70
2022-09-18T01:27:01.481Z,7.60
2022-09-18T01:29:36.976Z,7.70
2022-09-18T01:32:07.412Z,7.60
2022-09-18T01:34:36.754Z,7.80
2022-09-18T01:37:08.087Z,7.80
2022-09-18T01:39:37.356Z,7.80
2022-09-18T01:42:05.421Z,7.60
2022-09-18T01:44:34.574Z,7.40
2022-09-18T01:47:04.238Z,7.60
2022-09-18T01:49:34.697Z,7.60
2022-09-18T01:52:03.857Z,7.60
2022-09-18T01:54:34.158Z,7.60
2022-09-18T01:57:05.469Z,7.70
2022-09-18T01:59:35.573Z,7.70
2022-09-18T02:02:04.408Z,7.70
2022-09-18T02:04:34.037Z,7.70
2022-09-18T02:07:05.530Z,7.80
2022-09-18T02:09:33.581Z,7.90
2022-09-18T02:12:01.489Z,7.80
2022-09-18T02:14:30.809Z,7.80
2022-09-18T02:17:02.542Z,7.70
2022-09-18T02:19:32.806Z,7.80
2022-09-18T02:22:00.922Z,7.70
2022-09-18T02:24:31.237Z,7.80
2022-09-18T02:26:59.090Z,7.90
2022-09-18T02:29:26.901Z,7.90
2022-09-18T02:31:54.907Z,7.90
2022-09-18T02:34:24.519Z,7.90
2022-09-18T02:36:59.758Z,7.90
2022-09-18T02:39:37.148Z,7.80
2022-09-18T02:42:12.905Z,7.90
2022-09-18T02:44:43.555Z,7.90
2022-09-18T02:47:14.781Z,8.00
2022-09-18T02:49:47.640Z,8.00
2022-09-18T02:52:16.658Z,7.90
2022-09-18T02:54:47.689Z,8.00
2022-09-18T02:57:17.558Z,8.00
2022-09-18T02:59:46.583Z,7.90
2022-09-18T03:02:14.573Z,7.90
2022-09-18T03:04:43.859Z,8.00
2022-09-18T03:07:14.807Z,8.00
2022-09-18T03:09:42.678Z,8.00
2022-09-18T03:12:10.657Z,8.00
2022-09-18T03:14:38.476Z,8.10
2022-09-18T03:17:06.396Z,8.10
2022-09-18T03:19:34.211Z,8.00
2022-09-18T03:22:03.362Z,8.00
2022-09-18T03:24:31.199Z,8.00
2022-09-18T03:26:59.208Z,8.10
2022-09-18T03:29:27.026Z,8.10
2022-09-18T03:31:55.218Z,8.10
2022-09-18T03:34:23.115Z,8.20
2022-09-18T03:36:51.111Z,8.10
2022-09-18T03:39:20.441Z,8.10
2022-09-18T03:41:48.291Z,8.10
2022-09-18T03:44:16.098Z,8.10
2022-09-18T03:46:44.011Z,8.10
2022-09-18T03:49:11.893Z,8.00
2022-09-18T03:51:39.844Z,8.10
2022-09-18T03:54:07.666Z,8.10
2022-09-18T03:56:38.450Z,8.10
2022-09-18T03:59:06.386Z,8.00
2022-09-18T04:01:34.249Z,8.00
2022-09-18T04:04:02.384Z,8.10
2022-09-18T04:06:30.214Z,8.10
2022-09-18T04:08:58.031Z,8.20
2022-09-18T04:11:25.924Z,8.10
2022-09-18T04:13:55.282Z,8.00
2022-09-18T04:16:23.223Z,8.10
2022-09-18T04:18:51.082Z,8.10
2022-09-18T04:21:18.937Z,8.10
2022-09-18T04:23:46.745Z,8.10
2022-09-18T04:26:14.553Z,8.10
2022-09-18T04:28:42.344Z,8.20
2022-09-18T04:31:11.542Z,8.20
2022-09-18T04:33:39.410Z,8.10
2022-09-18T04:36:07.736Z,8.10
2022-09-18T04:38:35.531Z,8.10
2022-09-18T04:41:03.358Z,8.00
2022-09-18T04:43:31.196Z,8.10
2022-09-18T04:45:59.009Z,8.00
2022-09-18T04:48:28.237Z,8.10
2022-09-18T04:50:56.073Z,8.10
2022-09-18T04:53:23.890Z,8.10
2022-09-18T04:55:51.704Z,8.00
2022-09-18T04:58:20.919Z,8.00
2022-09-18T05:00:50.322Z,8.10
2022-09-18T05:03:19.321Z,8.10
2022-09-18T05:05:48.934Z,8.00
2022-09-18T05:08:16.754Z,8.10
2022-09-18T05:10:44.644Z,8.10
2022-09-18T05:13:12.446Z,8.10
2022-09-18T05:15:40.255Z,7.90
2022-09-18T05:18:11.547Z,7.80
2022-09-18T05:20:39.837Z,7.90
2022-09-18T05:23:08.996Z,7.90
2022-09-18T05:25:36.899Z,7.90
2022-09-18T05:28:04.881Z,7.90
2022-09-18T05:30:32.805Z,7.80
2022-09-18T05:33:01.529Z,7.80
2022-09-18T05:35:30.401Z,7.90
2022-09-18T05:37:58.319Z,7.90
2022-09-18T05:40:30.992Z,7.80
2022-09-18T05:42:59.050Z,7.90
2022-09-18T05:45:27.035Z,7.90
2022-09-18T05:47:55.249Z,7.90
2022-09-18T05:50:23.544Z,7.80
2022-09-18T05:52:59.033Z,7.80
2022-09-18T05:55:31.606Z,7.90
2022-09-18T05:58:00.556Z,7.80
2022-09-18T06:00:29.490Z,7.80
2022-09-18T06:02:58.700Z,7.90
2022-09-18T06:05:26.779Z,8.50
2022-09-18T06:07:59.559Z,8.50
2022-09-18T06:10:29.434Z,8.70
2022-09-18T06:13:02.134Z,8.80
2022-09-18T06:15:29.995Z,8.60
2022-09-18T06:17:57.834Z,8.40
2022-09-18T06:20:25.656Z,8.40
2022-09-18T06:22:53.682Z,8.30
2022-09-18T06:25:22.099Z,8.30
2022-09-18T06:27:54.586Z,8.40
2022-09-18T06:30:22.452Z,8.30
2022-09-18T06:36:31.041Z,8.40
2022-09-18T06:38:59.082Z,8.50
2022-09-18T06:41:27.004Z,8.40
2022-09-18T06:43:56.245Z,8.50
2022-09-18T06:46:24.739Z,8.40
2022-09-18T06:48:53.113Z,8.40
2022-09-18T06:51:21.014Z,8.40
2022-09-18T06:53:48.858Z,8.40
2022-09-18T06:56:16.700Z,8.60
2022-09-18T06:58:45.230Z,8.80
2022-09-18T07:01:14.479Z,8.70
2022-09-18T07:03:42.368Z,8.60
2022-09-18T07:06:10.569Z,8.60
2022-09-18T07:08:38.376Z,8.40
2022-09-18T07:11:06.566Z,8.50
2022-09-18T07:13:37.322Z,8.50
2022-09-18T07:16:05.588Z,8.40
2022-09-18T07:18:34.869Z,8.40
2022-09-18T07:21:02.754Z,8.50
2022-09-18T07:23:32.982Z,8.60
2022-09-18T07:26:00.937Z,8.50
2022-09-18T07:28:28.957Z,8.50
2022-09-18T07:30:56.976Z,8.50
2022-09-18T07:33:24.971Z,8.50
2022-09-18T07:35:55.580Z,8.60
2022-09-18T07:38:23.398Z,8.50
2022-09-18T07:40:51.307Z,8.50
2022-09-18T07:43:19.137Z,8.50
2022-09-18T07:45:46.994Z,8.50
2022-09-18T07:48:15.721Z,8.50
2022-09-18T07:50:43.763Z,8.60
2022-09-18T07:53:13.014Z,8.60
2022-09-18T07:55:42.923Z,8.50
2022-09-18T07:58:10.794Z,8.50
2022-09-18T08:00:38.802Z,8.50
2022-09-18T08:03:09.289Z,8.60
2022-09-18T08:05:37.334Z,8.70
2022-09-18T08:08:05.650Z,8.80
2022-09-18T08:10:34.869Z,8.80
2022-09-18T08:13:03.667Z,8.70
2022-09-18T08:15:31.651Z,8.80
2022-09-18T08:17:59.599Z,8.80
2022-09-18T08:20:27.691Z,8.80
2022-09-18T08:22:55.777Z,8.80
2022-09-18T08:25:23.650Z,8.90
2022-09-18T08:27:52.855Z,8.90
2022-09-18T08:30:21.107Z,8.90
2022-09-18T08:32:49.010Z,9.00
2022-09-18T08:35:16.949Z,8.90
2022-09-18T08:37:48.734Z,9.00
2022-09-18T08:40:17.963Z,9.10
2022-09-18T08:42:49.194Z,9.10
2022-09-18T08:45:30.964Z,9.10
2022-09-18T08:48:00.067Z,9.20
2022-09-18T08:50:29.176Z,9.20
2022-09-18T08:52:58.887Z,9.20
2022-09-18T08:55:29.944Z,9.10
2022-09-18T08:57:59.837Z,9.10
2022-09-18T09:00:32.045Z,9.20
2022-09-18T09:03:03.056Z,9.20
2022-09-18T09:05:32.970Z,9.30
2022-09-18T09:08:09.518Z,9.40
2022-09-18T09:10:48.643Z,9.40
2022-09-18T09:13:48.102Z,9.50
2022-09-18T09:16:18.508Z,9.50
2022-09-18T09:18:54.222Z,9.50
2022-09-18T09:21:22.914Z,9.50
2022-09-18T09:23:59.522Z,9.50
2022-09-18T09:26:28.242Z,9.60
2022-09-18T09:28:59.236Z,9.70
2022-09-18T09:31:29.119Z,9.70
2022-09-18T09:33:58.891Z,9.70
2022-09-18T09:36:28.057Z,9.70
2022-09-18T09:38:58.314Z,9.80
2022-09-18T09:41:30.685Z,9.80
2022-09-18T09:44:16.033Z,9.90
2022-09-18T09:46:52.156Z,10.00
2022-09-18T09:49:22.880Z,9.90
2022-09-18T09:51:54.355Z,9.90
2022-09-18T09:54:22.166Z,9.90
2022-09-18T09:56:52.651Z,10.00
2022-09-18T09:59:24.542Z,10.10
2022-09-18T10:01:56.516Z,10.20
2022-09-18T10:04:28.297Z,10.20
2022-09-18T10:06:58.633Z,10.30
2022-09-18T10:09:32.672Z,10.30
2022-09-18T10:12:03.675Z,10.40
2022-09-18T10:14:32.390Z,10.20
2022-09-18T10:17:01.634Z,10.30
2022-09-18T10:19:34.562Z,10.20
2022-09-18T10:22:03.109Z,10.20
2022-09-18T10:24:32.094Z,10.20
2022-09-18T10:27:03.582Z,10.20
2022-09-18T10:29:35.604Z,10.30
2022-09-18T10:32:06.947Z,10.20
2022-09-18T10:34:40.222Z,10.30
2022-09-18T10:37:15.145Z,10.30
2022-09-18T10:39:49.838Z,10.40
2022-09-18T10:42:18.566Z,10.40
2022-09-18T10:44:50.449Z,10.40
2022-09-18T10:47:23.843Z,10.40
2022-09-18T10:49:52.926Z,10.50
2022-09-18T10:52:32.677Z,10.50
2022-09-18T10:55:02.514Z,10.50
2022-09-18T10:57:32.112Z,10.50
2022-09-18T11:00:00.028Z,10.50
2022-09-18T11:02:30.613Z,10.60
2022-09-18T11:04:58.633Z,10.60
2022-09-18T11:07:26.537Z,10.60
2022-09-18T11:09:54.366Z,10.70
2022-09-18T11:12:23.334Z,10.80
2022-09-18T11:14:54.804Z,10.90
2022-09-18T11:17:25.956Z,10.90
2022-09-18T11:19:56.606Z,11.10
2022-09-18T11:22:36.335Z,11.00
2022-09-18T11:25:23.413Z,11.00
2022-09-18T11:27:52.099Z,11.00
2022-09-18T11:30:24.320Z,11.20
2022-09-18T11:32:54.286Z,11.30
2022-09-18T11:35:23.577Z,11.30
2022-09-18T11:37:53.001Z,11.50
2022-09-18T11:40:23.463Z,11.60
2022-09-18T11:42:54.108Z,11.90
2022-09-18T11:45:31.041Z,12.10
2022-09-18T11:48:02.202Z,12.20
2022-09-18T11:50:33.421Z,12.30
2022-09-18T11:53:03.096Z,12.30
2022-09-18T11:55:33.664Z,12.30
2022-09-18T11:58:03.581Z,12.00
2022-09-18T12:00:34.193Z,12.10
2022-09-18T12:03:16.215Z,12.00
2022-09-18T12:05:52.357Z,12.00
2022-09-18T12:08:23.698Z,12.00
2022-09-18T12:10:57.072Z,12.00
2022-09-18T12:13:39.547Z,12.30
2022-09-18T12:16:12.593Z,12.90
2022-09-18T12:18:48.042Z,13.10
2022-09-18T12:21:18.537Z,12.80
2022-09-18T12:23:46.410Z,12.80
2022-09-18T12:26:16.890Z,12.90
2022-09-18T12:29:00.264Z,12.50
2022-09-18T12:31:41.557Z,12.20
2022-09-18T12:34:13.133Z,12.20
2022-09-18T12:36:55.151Z,12.20
2022-09-18T12:39:31.795Z,12.10
2022-09-18T12:42:06.942Z,12.10
2022-09-18T12:45:31.688Z,12.10
2022-09-18T12:48:12.291Z,12.10
2022-09-18T12:50:49.589Z,12.10
2022-09-18T12:53:36.271Z,12.10
2022-09-18T12:56:10.941Z,12.40
2022-09-18T12:59:13.220Z,12.20
2022-09-18T13:01:45.141Z,12.50
2022-09-18T13:04:17.717Z,12.70
2022-09-18T13:06:47.896Z,13.00
2022-09-18T13:09:23.835Z,13.30
2022-09-18T13:11:54.919Z,13.20
2022-09-18T13:14:24.680Z,13.40
2022-09-18T13:16:55.110Z,13.80
2022-09-18T13:19:25.163Z,14.20
2022-09-18T13:21:53.321Z,14.30
2022-09-18T13:24:23.925Z,14.30
2022-09-18T13:26:51.927Z,14.10
2022-09-18T13:29:47.299Z,14.30
2022-09-18T13:32:15.747Z,14.20
2022-09-18T13:34:48.144Z,14.10
2022-09-18T13:37:17.198Z,14.20
2022-09-18T13:40:09.167Z,14.40
2022-09-18T13:42:39.089Z,14.10
2022-09-18T13:45:08.288Z,13.90
2022-09-18T13:47:37.885Z,13.80
2022-09-18T13:50:07.885Z,13.60
2022-09-18T13:52:44.776Z,13.50
2022-09-18T13:55:36.765Z,13.40
2022-09-18T13:58:36.922Z,13.50
2022-09-18T14:01:05.767Z,13.50
2022-09-18T14:03:38.108Z,13.40
2022-09-18T14:06:45.548Z,13.30
2022-09-18T14:09:27.844Z,13.30
2022-09-18T14:11:58.573Z,13.20
2022-09-18T14:14:29.109Z,13.30
2022-09-18T14:17:00.507Z,13.20
2022-09-18T14:19:32.124Z,13.30
2022-09-18T14:22:00.435Z,13.30
2022-09-18T14:24:56.029Z,13.10
2022-09-18T14:27:48.789Z,13.10
2022-09-18T14:30:22.271Z,13.00
2022-09-18T14:33:05.013Z,12.90
2022-09-18T14:35:37.225Z,12.80
2022-09-18T14:38:17.307Z,12.80
2022-09-18T14:40:49.589Z,12.80
2022-09-18T14:43:20.279Z,12.80
2022-09-18T14:45:49.232Z,12.80
2022-09-18T14:48:27.942Z,12.80
2022-09-18T14:50:59.896Z,12.80
2022-09-18T14:53:28.439Z,12.70
2022-09-18T14:55:57.873Z,12.80
2022-09-18T14:58:29.166Z,12.80
2022-09-18T15:00:57.453Z,12.90
2022-09-18T15:03:27.473Z,12.90
2022-09-18T15:05:57.417Z,12.80
2022-09-18T15:08:26.907Z,12.70
2022-09-18T15:10:55.129Z,12.70
2022-09-18T15:13:22.924Z,12.70
2022-09-18T15:15:59.860Z,12.80
2022-09-18T15:18:28.465Z,13.10
2022-09-18T15:20:57.033Z,12.90
2022-09-18T15:23:27.476Z,12.80
2022-09-18T15:25:57.287Z,12.70
2022-09-18T15:28:25.659Z,12.70
2022-09-18T15:30:57.445Z,12.70
2022-09-18T15:33:27.390Z,12.70
2022-09-18T15:35:55.710Z,12.50
2022-09-18T15:38:24.882Z,12.60
2022-09-18T15:40:52.791Z,12.50
2022-09-18T15:43:43.361Z,12.40
2022-09-18T15:46:11.895Z,12.40
2022-09-18T15:48:43.949Z,12.30
2022-09-18T15:51:15.031Z,12.30
2022-09-18T15:53:43.000Z,12.30
2022-09-18T15:56:19.137Z,12.30
2022-09-18T15:58:51.833Z,12.20
2022-09-18T16:01:27.565Z,12.10
2022-09-18T16:04:17.933Z,12.10
2022-09-18T16:06:54.642Z,12.00
2022-09-18T16:09:30.712Z,12.10
2022-09-18T16:12:01.348Z,12.00
2022-09-18T16:14:50.050Z,12.00
2022-09-18T16:18:15.075Z,11.90
2022-09-18T16:20:44.483Z,11.90
2022-09-18T16:23:21.413Z,11.90
2022-09-18T16:26:02.573Z,11.90
2022-09-18T16:28:31.326Z,11.80
2022-09-18T16:30:59.146Z,11.80
2022-09-18T16:33:27.788Z,11.80
2022-09-18T16:35:58.029Z,11.80
2022-09-18T16:38:25.866Z,11.80
2022-09-18T16:40:53.778Z,11.70
2022-09-18T16:43:21.710Z,11.70
2022-09-18T16:45:49.620Z,11.70
2022-09-18T16:48:17.535Z,11.70
2022-09-18T16:50:45.485Z,11.70
2022-09-18T16:53:14.839Z,11.80
2022-09-18T16:55:44.420Z,11.70
2022-09-18T16:58:12.233Z,11.60
2022-09-18T17:00:40.064Z,11.50
2022-09-18T17:03:08.023Z,11.50
2022-09-18T17:05:36.020Z,11.50
2022-09-18T17:08:04.678Z,11.40
2022-09-18T17:10:35.168Z,11.30
2022-09-18T17:13:03.100Z,11.30
2022-09-18T17:15:30.964Z,11.20
2022-09-18T17:17:58.831Z,11.20
2022-09-18T17:20:26.629Z,11.20
2022-09-18T17:22:54.485Z,11.20
2022-09-18T17:25:22.303Z,11.20
2022-09-18T17:27:52.687Z,11.20
2022-09-18T17:30:20.839Z,11.20
2022-09-18T17:32:48.982Z,11.20
2022-09-18T17:35:17.261Z,11.50
2022-09-18T17:37:45.092Z,11.60
2022-09-18T17:40:13.002Z,11.90
2022-09-18T17:42:41.485Z,11.80
2022-09-18T17:45:11.319Z,11.60
2022-09-18T17:47:39.132Z,11.50
2022-09-18T17:50:08.461Z,11.30
2022-09-18T17:52:36.509Z,11.20
2022-09-18T17:55:04.557Z,11.10
2022-09-18T17:57:32.848Z,11.00
2022-09-18T18:00:00.663Z,11.10
2022-09-18T18:02:29.926Z,11.00
2022-09-18T18:04:57.820Z,11.00
2022-09-18T18:07:26.152Z,10.90
2022-09-18T18:09:53.968Z,11.00
2022-09-18T18:12:21.810Z,11.00
2022-09-18T18:14:49.625Z,11.10
2022-09-18T18:17:18.858Z,11.10
2022-09-18T18:19:48.035Z,11.00
2022-09-18T18:22:15.851Z,11.10
2022-09-18T18:24:43.769Z,11.00
2022-09-18T18:27:11.593Z,11.10
2022-09-18T18:29:39.766Z,11.20
2022-09-18T18:32:07.564Z,11.10
2022-09-18T18:34:35.466Z,11.10
2022-09-18T18:37:08.868Z,11.00
2022-09-18T18:39:36.784Z,11.00
2022-09-18T18:42:04.808Z,11.00
2022-09-18T18:44:34.471Z,11.00
2022-09-18T18:47:02.535Z,11.00
2022-09-18T18:49:31.127Z,10.90
2022-09-18T18:51:59.177Z,11.00
2022-09-18T18:54:29.000Z,11.00
2022-09-18T18:56:56.801Z,11.00
2022-09-18T18:59:25.581Z,11.00
2022-09-18T19:01:55.849Z,11.00
2022-09-18T19:04:24.033Z,10.90
2022-09-18T19:06:51.879Z,10.90
2022-09-18T19:09:20.948Z,11.00
2022-09-18T19:11:50.704Z,10.90
2022-09-18T19:14:19.302Z,10.90
2022-09-18T19:16:47.529Z,11.00
2022-09-18T19:19:16.106Z,11.00
2022-09-18T19:21:43.991Z,11.00
2022-09-18T19:24:12.097Z,11.00
2022-09-18T19:26:40.797Z,11.10
2022-09-18T19:29:12.392Z,11.20
2022-09-18T19:31:40.975Z,11.20
2022-09-18T19:34:11.897Z,11.20
2022-09-18T19:36:39.830Z,11.20
2022-09-18T19:39:08.424Z,11.10
2022-09-18T19:41:38.931Z,11.10
2022-09-18T19:44:10.146Z,11.10
2022-09-18T19:46:38.084Z,11.20
2022-09-18T19:49:06.017Z,11.00
2022-09-18T19:51:35.123Z,11.10
2022-09-18T19:54:04.049Z,11.10
2022-09-18T19:56:43.060Z,11.10
2022-09-18T19:59:13.271Z,11.10
2022-09-18T20:01:41.291Z,11.10
2022-09-18T20:04:09.164Z,10.90
2022-09-18T20:06:38.793Z,11.00
2022-09-18T20:09:06.675Z,10.90
2022-09-18T20:11:35.169Z,10.90
2022-09-18T20:14:03.346Z,11.00
2022-09-18T20:16:32.585Z,10.80
2022-09-18T20:19:01.120Z,10.90
2022-09-18T20:21:29.758Z,10.80
2022-09-18T20:23:58.190Z,10.80
2022-09-18T20:26:26.194Z,10.70
2022-09-18T20:28:53.996Z,10.80
2022-09-18T20:31:23.746Z,10.80
2022-09-18T20:33:56.303Z,10.80
2022-09-18T20:36:25.687Z,10.80
2022-09-18T20:38:57.863Z,10.70
2022-09-18T20:41:28.083Z,10.70
2022-09-18T20:43:56.087Z,10.70
2022-09-18T20:46:24.201Z,10.60
2022-09-18T20:48:55.142Z,10.60
2022-09-18T20:51:26.661Z,10.60
2022-09-18T20:53:56.150Z,10.50
2022-09-18T20:56:24.381Z,10.50
2022-09-18T20:58:52.370Z,10.60
2022-09-18T21:01:21.271Z,10.50
2022-09-18T21:03:50.116Z,10.40
2022-09-18T21:06:23.070Z,10.50
2022-09-18T21:08:53.728Z,10.50
2022-09-18T21:11:23.881Z,10.50
2022-09-18T21:13:53.039Z,10.50
2022-09-18T21:16:22.001Z,10.50
2022-09-18T21:18:50.094Z,10.50
2022-09-18T21:21:18.121Z,10.50
2022-09-18T21:23:56.389Z,10.50
2022-09-18T21:26:27.088Z,10.50
2022-09-18T21:28:56.033Z,10.50
2022-09-18T21:31:24.641Z,10.50
2022-09-18T21:33:53.228Z,10.50
2022-09-18T21:36:21.698Z,10.50
2022-09-18T21:38:50.837Z,10.50
2022-09-18T21:41:19.212Z,10.40
2022-09-18T21:43:50.984Z,10.50
2022-09-18T21:46:20.106Z,10.50
2022-09-18T21:48:48.402Z,10.50
2022-09-18T21:51:17.413Z,10.50
2022-09-18T21:53:45.343Z,10.50
2022-09-18T21:56:15.801Z,10.50
2022-09-18T21:58:45.074Z,10.50
2022-09-18T22:01:18.289Z,10.50
2022-09-18T22:03:50.452Z,10.50
2022-09-18T22:06:19.280Z,10.50
2022-09-18T22:08:52.340Z,10.50
2022-09-18T22:11:20.598Z,10.50
2022-09-18T22:13:48.553Z,10.50
2022-09-18T22:16:17.778Z,10.60
2022-09-18T22:18:47.627Z,10.60
2022-09-18T22:21:20.352Z,10.60
2022-09-18T22:23:51.602Z,10.60
2022-09-18T22:26:19.673Z,10.60
2022-09-18T22:28:49.653Z,10.60
2022-09-18T22:31:19.047Z,10.60
2022-09-18T22:33:47.311Z,10.60
2022-09-18T22:36:15.196Z,10.60
2022-09-18T22:38:43.113Z,10.70
2022-09-18T22:41:11.010Z,10.70
2022-09-18T22:43:38.881Z,10.70
2022-09-18T22:46:07.897Z,10.70
2022-09-18T22:48:37.241Z,10.80
2022-09-18T22:51:06.928Z,10.70
2022-09-18T22:53:34.954Z,10.70
2022-09-18T22:56:04.270Z,10.80
2022-09-18T22:58:32.085Z,10.70
2022-09-18T23:01:06.869Z,10.70
2022-09-18T23:03:36.827Z,10.70
2022-09-18T23:06:04.803Z,10.60
2022-09-18T23:08:32.598Z,10.50
2022-09-18T23:11:04.288Z,10.40
2022-09-18T23:13:32.781Z,10.30
2022-09-18T23:16:05.035Z,10.00
2022-09-18T23:18:32.812Z,9.60
2022-09-18T23:21:03.382Z,9.40
2022-09-18T23:23:31.997Z,9.20
2022-09-18T23:26:08.415Z,9.00
2022-09-18T23:28:36.665Z,8.90
2022-09-18T23:31:06.793Z,8.80
2022-09-18T23:33:35.099Z,8.80
2022-09-18T23:36:09.166Z,8.60
2022-09-18T23:38:37.013Z,8.70
2022-09-18T23:41:05.821Z,8.70
2022-09-18T23:43:33.631Z,8.60
2022-09-18T23:46:01.514Z,8.60
2022-09-18T23:48:29.470Z,8.60
2022-09-18T23:50:59.682Z,8.50
2022-09-18T23:53:28.994Z,8.70
2022-09-18T23:56:02.041Z,8.70
2022-09-18T23:58:29.855Z,8.60
